sensor_id;sensor_type;location;lat;lon;timestamp;P1;durP1;ratioP1;P2;durP2;ratioP2
21848;SDS011;11089;49.852;19.700;2023-02-28T00:02:42;33.28;;;12.70;;
21848;SDS011;11089;49.852;19.700;2023-02-28T00:05:44;32.78;;;12.20;;
21848;SDS011;11089;49.852;19.700;2023-02-28T00:08:45;27.65;;;12.18;;
21848;SDS011;11089;49.852;19.700;2023-02-28T00:11:45;34.65;;;12.02;;
21848;SDS011;11089;49.852;19.700;2023-02-28T00:14:46;29.20;;;12.07;;
21848;SDS011;11089;49.852;19.700;2023-02-28T00:17:47;30.15;;;12.18;;
21848;SDS011;11089;49.852;19.700;2023-02-28T00:20:48;26.85;;;11.32;;
21848;SDS011;11089;49.852;19.700;2023-02-28T00:23:49;23.75;;;11.25;;
21848;SDS011;11089;49.852;19.700;2023-02-28T00:26:50;29.50;;;12.15;;
21848;SDS011;11089;49.852;19.700;2023-02-28T00:29:51;28.25;;;11.73;;
21848;SDS011;11089;49.852;19.700;2023-02-28T00:32:54;31.73;;;11.75;;
21848;SDS011;11089;49.852;19.700;2023-02-28T00:39:11;31.77;;;11.75;;
21848;SDS011;11089;49.852;19.700;2023-02-28T00:42:12;25.65;;;11.75;;
21848;SDS011;11089;49.852;19.700;2023-02-28T00:45:13;27.42;;;11.57;;
21848;SDS011;11089;49.852;19.700;2023-02-28T00:48:14;29.10;;;12.30;;
21848;SDS011;11089;49.852;19.700;2023-02-28T00:51:16;24.77;;;11.73;;
21848;SDS011;11089;49.852;19.700;2023-02-28T00:54:17;27.50;;;11.30;;
21848;SDS011;11089;49.852;19.700;2023-02-28T00:57:18;26.30;;;11.55;;
21848;SDS011;11089;49.852;19.700;2023-02-28T01:00:19;34.20;;;11.68;;
21848;SDS011;11089;49.852;19.700;2023-02-28T01:03:20;26.48;;;10.82;;
21848;SDS011;11089;49.852;19.700;2023-02-28T01:06:22;28.90;;;11.95;;
21848;SDS011;11089;49.852;19.700;2023-02-28T01:09:23;25.58;;;10.57;;
21848;SDS011;11089;49.852;19.700;2023-02-28T01:12:24;25.48;;;11.07;;
21848;SDS011;11089;49.852;19.700;2023-02-28T01:15:25;27.02;;;11.38;;
21848;SDS011;11089;49.852;19.700;2023-02-28T01:18:26;25.75;;;11.40;;
21848;SDS011;11089;49.852;19.700;2023-02-28T01:21:27;25.83;;;11.90;;
21848;SDS011;11089;49.852;19.700;2023-02-28T01:24:29;29.52;;;13.50;;
21848;SDS011;11089;49.852;19.700;2023-02-28T01:27:30;30.52;;;12.40;;
21848;SDS011;11089;49.852;19.700;2023-02-28T01:30:31;28.75;;;12.48;;
21848;SDS011;11089;49.852;19.700;2023-02-28T01:33:33;31.15;;;12.52;;
21848;SDS011;11089;49.852;19.700;2023-02-28T01:36:34;29.92;;;13.07;;
21848;SDS011;11089;49.852;19.700;2023-02-28T01:39:36;30.10;;;12.50;;
21848;SDS011;11089;49.852;19.700;2023-02-28T01:42:37;31.85;;;13.05;;
21848;SDS011;11089;49.852;19.700;2023-02-28T01:45:38;35.97;;;13.73;;
21848;SDS011;11089;49.852;19.700;2023-02-28T01:48:43;32.25;;;13.73;;
21848;SDS011;11089;49.852;19.700;2023-02-28T01:51:49;29.55;;;13.55;;
21848;SDS011;11089;49.852;19.700;2023-02-28T01:54:53;37.65;;;13.27;;
21848;SDS011;11089;49.852;19.700;2023-02-28T01:57:57;29.17;;;12.73;;
21848;SDS011;11089;49.852;19.700;2023-02-28T02:01:00;29.88;;;12.55;;
21848;SDS011;11089;49.852;19.700;2023-02-28T02:04:03;35.08;;;13.32;;
21848;SDS011;11089;49.852;19.700;2023-02-28T02:07:04;29.50;;;13.20;;
21848;SDS011;11089;49.852;19.700;2023-02-28T02:17:08;32.40;;;13.20;;
21848;SDS011;11089;49.852;19.700;2023-02-28T02:37:08;31.15;;;12.55;;
21848;SDS011;11089;49.852;19.700;2023-02-28T02:40:18;30.23;;;12.88;;
21848;SDS011;11089;49.852;19.700;2023-02-28T02:43:27;34.45;;;13.88;;
21848;SDS011;11089;49.852;19.700;2023-02-28T02:46:33;31.70;;;12.48;;
21848;SDS011;11089;49.852;19.700;2023-02-28T02:49:38;33.65;;;13.23;;
21848;SDS011;11089;49.852;19.700;2023-02-28T02:52:45;31.85;;;12.60;;
21848;SDS011;11089;49.852;19.700;2023-02-28T02:55:51;30.80;;;12.25;;
21848;SDS011;11089;49.852;19.700;2023-02-28T02:58:56;29.08;;;12.73;;
21848;SDS011;11089;49.852;19.700;2023-02-28T03:02:04;32.15;;;14.02;;
21848;SDS011;11089;49.852;19.700;2023-02-28T03:05:12;34.08;;;13.45;;
21848;SDS011;11089;49.852;19.700;2023-02-28T03:08:40;35.25;;;13.60;;
21848;SDS011;11089;49.852;19.700;2023-02-28T03:11:40;33.45;;;13.48;;
21848;SDS011;11089;49.852;19.700;2023-02-28T03:14:51;31.83;;;13.23;;
21848;SDS011;11089;49.852;19.700;2023-02-28T03:18:17;30.70;;;13.38;;
21848;SDS011;11089;49.852;19.700;2023-02-28T03:31:48;33.67;;;13.23;;
21848;SDS011;11089;49.852;19.700;2023-02-28T03:34:55;32.85;;;13.35;;
21848;SDS011;11089;49.852;19.700;2023-02-28T03:38:12;34.58;;;13.88;;
21848;SDS011;11089;49.852;19.700;2023-02-28T03:41:19;36.53;;;13.15;;
21848;SDS011;11089;49.852;19.700;2023-02-28T03:44:29;34.40;;;13.80;;
21848;SDS011;11089;49.852;19.700;2023-02-28T03:47:39;33.92;;;14.27;;
21848;SDS011;11089;49.852;19.700;2023-02-28T03:50:49;34.72;;;14.25;;
21848;SDS011;11089;49.852;19.700;2023-02-28T03:53:54;34.50;;;14.50;;
21848;SDS011;11089;49.852;19.700;2023-02-28T03:57:03;34.13;;;15.23;;
21848;SDS011;11089;49.852;19.700;2023-02-28T04:00:15;35.40;;;14.60;;
21848;SDS011;11089;49.852;19.700;2023-02-28T04:03:20;33.30;;;14.85;;
21848;SDS011;11089;49.852;19.700;2023-02-28T04:06:21;30.70;;;13.55;;
21848;SDS011;11089;49.852;19.700;2023-02-28T04:09:23;36.00;;;13.68;;
21848;SDS011;11089;49.852;19.700;2023-02-28T04:12:24;32.72;;;13.35;;
21848;SDS011;11089;49.852;19.700;2023-02-28T04:15:25;36.72;;;12.65;;
21848;SDS011;11089;49.852;19.700;2023-02-28T04:18:27;32.75;;;13.95;;
21848;SDS011;11089;49.852;19.700;2023-02-28T04:21:28;29.88;;;12.63;;
21848;SDS011;11089;49.852;19.700;2023-02-28T04:24:30;28.27;;;11.88;;
21848;SDS011;11089;49.852;19.700;2023-02-28T04:27:31;35.72;;;13.20;;
21848;SDS011;11089;49.852;19.700;2023-02-28T04:30:32;35.50;;;13.77;;
21848;SDS011;11089;49.852;19.700;2023-02-28T04:33:33;31.35;;;13.27;;
21848;SDS011;11089;49.852;19.700;2023-02-28T04:36:34;30.10;;;12.68;;
21848;SDS011;11089;49.852;19.700;2023-02-28T04:39:35;30.15;;;12.57;;
21848;SDS011;11089;49.852;19.700;2023-02-28T04:42:37;31.25;;;13.48;;
21848;SDS011;11089;49.852;19.700;2023-02-28T04:45:38;31.55;;;13.15;;
21848;SDS011;11089;49.852;19.700;2023-02-28T04:48:39;33.47;;;12.35;;
21848;SDS011;11089;49.852;19.700;2023-02-28T04:51:40;35.33;;;14.20;;
21848;SDS011;11089;49.852;19.700;2023-02-28T04:54:41;32.38;;;13.27;;
21848;SDS011;11089;49.852;19.700;2023-02-28T04:57:42;34.25;;;14.00;;
21848;SDS011;11089;49.852;19.700;2023-02-28T05:00:43;36.30;;;13.38;;
21848;SDS011;11089;49.852;19.700;2023-02-28T05:03:44;31.42;;;12.73;;
21848;SDS011;11089;49.852;19.700;2023-02-28T05:06:45;32.33;;;13.05;;
21848;SDS011;11089;49.852;19.700;2023-02-28T05:09:46;33.80;;;13.25;;
21848;SDS011;11089;49.852;19.700;2023-02-28T05:12:47;34.08;;;13.27;;
21848;SDS011;11089;49.852;19.700;2023-02-28T05:15:48;40.80;;;15.98;;
21848;SDS011;11089;49.852;19.700;2023-02-28T05:18:49;34.72;;;15.13;;
21848;SDS011;11089;49.852;19.700;2023-02-28T05:21:51;29.17;;;13.23;;
21848;SDS011;11089;49.852;19.700;2023-02-28T05:24:54;27.15;;;12.10;;
21848;SDS011;11089;49.852;19.700;2023-02-28T05:27:55;27.77;;;11.93;;
21848;SDS011;11089;49.852;19.700;2023-02-28T05:30:55;28.17;;;11.40;;
21848;SDS011;11089;49.852;19.700;2023-02-28T05:33:56;29.25;;;12.00;;
21848;SDS011;11089;49.852;19.700;2023-02-28T05:36:57;32.92;;;12.23;;
21848;SDS011;11089;49.852;19.700;2023-02-28T05:39:58;33.85;;;13.95;;
21848;SDS011;11089;49.852;19.700;2023-02-28T05:43:00;38.20;;;14.68;;
21848;SDS011;11089;49.852;19.700;2023-02-28T05:46:04;37.00;;;15.05;;
21848;SDS011;11089;49.852;19.700;2023-02-28T05:49:06;49.15;;;19.35;;
21848;SDS011;11089;49.852;19.700;2023-02-28T05:52:07;45.95;;;17.55;;
21848;SDS011;11089;49.852;19.700;2023-02-28T05:55:08;40.17;;;17.52;;
21848;SDS011;11089;49.852;19.700;2023-02-28T05:58:09;38.90;;;15.80;;
21848;SDS011;11089;49.852;19.700;2023-02-28T06:01:21;32.47;;;14.48;;
21848;SDS011;11089;49.852;19.700;2023-02-28T06:04:36;57.85;;;22.92;;
21848;SDS011;11089;49.852;19.700;2023-02-28T06:07:37;64.55;;;25.60;;
21848;SDS011;11089;49.852;19.700;2023-02-28T06:10:38;91.68;;;34.70;;
21848;SDS011;11089;49.852;19.700;2023-02-28T06:13:39;88.43;;;33.78;;
21848;SDS011;11089;49.852;19.700;2023-02-28T06:16:40;87.53;;;35.08;;
21848;SDS011;11089;49.852;19.700;2023-02-28T06:19:41;83.68;;;32.70;;
21848;SDS011;11089;49.852;19.700;2023-02-28T06:22:42;84.97;;;33.45;;
21848;SDS011;11089;49.852;19.700;2023-02-28T06:25:46;77.72;;;30.98;;
21848;SDS011;11089;49.852;19.700;2023-02-28T06:28:47;69.68;;;30.20;;
21848;SDS011;11089;49.852;19.700;2023-02-28T06:31:48;81.47;;;32.05;;
21848;SDS011;11089;49.852;19.700;2023-02-28T06:34:49;94.63;;;36.58;;
21848;SDS011;11089;49.852;19.700;2023-02-28T06:37:50;91.97;;;36.88;;
21848;SDS011;11089;49.852;19.700;2023-02-28T06:40:55;81.68;;;31.48;;
21848;SDS011;11089;49.852;19.700;2023-02-28T06:43:57;62.30;;;26.15;;
21848;SDS011;11089;49.852;19.700;2023-02-28T06:46:58;69.85;;;26.92;;
21848;SDS011;11089;49.852;19.700;2023-02-28T06:49:59;65.28;;;25.83;;
21848;SDS011;11089;49.852;19.700;2023-02-28T06:53:01;66.30;;;27.40;;
21848;SDS011;11089;49.852;19.700;2023-02-28T06:56:06;57.50;;;24.38;;
21848;SDS011;11089;49.852;19.700;2023-02-28T06:59:08;126.53;;;47.13;;
21848;SDS011;11089;49.852;19.700;2023-02-28T07:02:09;262.70;;;74.18;;
21848;SDS011;11089;49.852;19.700;2023-02-28T07:05:09;302.63;;;86.00;;
21848;SDS011;11089;49.852;19.700;2023-02-28T07:08:10;224.10;;;72.53;;
21848;SDS011;11089;49.852;19.700;2023-02-28T07:11:11;147.75;;;49.88;;
21848;SDS011;11089;49.852;19.700;2023-02-28T07:14:12;184.52;;;62.63;;
21848;SDS011;11089;49.852;19.700;2023-02-28T07:17:13;191.55;;;70.65;;
21848;SDS011;11089;49.852;19.700;2023-02-28T07:20:14;166.27;;;61.55;;
21848;SDS011;11089;49.852;19.700;2023-02-28T07:23:16;175.13;;;67.70;;
21848;SDS011;11089;49.852;19.700;2023-02-28T07:26:17;137.15;;;50.05;;
21848;SDS011;11089;49.852;19.700;2023-02-28T07:29:19;103.40;;;40.95;;
21848;SDS011;11089;49.852;19.700;2023-02-28T07:32:20;101.55;;;40.15;;
21848;SDS011;11089;49.852;19.700;2023-02-28T07:35:22;91.95;;;37.63;;
21848;SDS011;11089;49.852;19.700;2023-02-28T07:38:23;58.22;;;24.80;;
21848;SDS011;11089;49.852;19.700;2023-02-28T07:41:24;36.00;;;15.50;;
21848;SDS011;11089;49.852;19.700;2023-02-28T07:44:27;37.45;;;15.10;;
21848;SDS011;11089;49.852;19.700;2023-02-28T07:47:29;39.63;;;14.95;;
21848;SDS011;11089;49.852;19.700;2023-02-28T07:50:30;30.15;;;13.55;;
21848;SDS011;11089;49.852;19.700;2023-02-28T07:53:31;29.05;;;12.77;;
21848;SDS011;11089;49.852;19.700;2023-02-28T07:56:32;25.42;;;11.25;;
21848;SDS011;11089;49.852;19.700;2023-02-28T07:59:33;26.58;;;11.68;;
21848;SDS011;11089;49.852;19.700;2023-02-28T08:02:34;28.75;;;12.38;;
21848;SDS011;11089;49.852;19.700;2023-02-28T08:05:38;27.45;;;11.52;;
21848;SDS011;11089;49.852;19.700;2023-02-28T08:08:40;26.65;;;10.93;;
21848;SDS011;11089;49.852;19.700;2023-02-28T08:11:41;25.42;;;12.10;;
21848;SDS011;11089;49.852;19.700;2023-02-28T08:14:42;24.85;;;11.38;;
21848;SDS011;11089;49.852;19.700;2023-02-28T08:17:43;26.48;;;11.38;;
21848;SDS011;11089;49.852;19.700;2023-02-28T08:20:43;28.52;;;11.30;;
21848;SDS011;11089;49.852;19.700;2023-02-28T08:23:48;24.55;;;11.65;;
21848;SDS011;11089;49.852;19.700;2023-02-28T08:26:50;27.40;;;11.55;;
21848;SDS011;11089;49.852;19.700;2023-02-28T08:29:51;27.85;;;11.85;;
21848;SDS011;11089;49.852;19.700;2023-02-28T08:32:52;22.83;;;10.85;;
21848;SDS011;11089;49.852;19.700;2023-02-28T08:35:53;20.90;;;10.18;;
21848;SDS011;11089;49.852;19.700;2023-02-28T08:38:57;23.23;;;9.88;;
21848;SDS011;11089;49.852;19.700;2023-02-28T08:41:59;23.27;;;10.27;;
21848;SDS011;11089;49.852;19.700;2023-02-28T08:45:00;15.40;;;7.95;;
21848;SDS011;11089;49.852;19.700;2023-02-28T08:48:01;13.85;;;6.72;;
21848;SDS011;11089;49.852;19.700;2023-02-28T08:51:06;10.85;;;5.95;;
21848;SDS011;11089;49.852;19.700;2023-02-28T08:54:09;14.77;;;6.75;;
21848;SDS011;11089;49.852;19.700;2023-02-28T08:57:12;12.15;;;6.57;;
21848;SDS011;11089;49.852;19.700;2023-02-28T09:00:13;13.88;;;6.82;;
21848;SDS011;11089;49.852;19.700;2023-02-28T09:03:14;9.98;;;6.53;;
21848;SDS011;11089;49.852;19.700;2023-02-28T09:06:16;11.13;;;6.20;;
21848;SDS011;11089;49.852;19.700;2023-02-28T09:09:18;14.07;;;7.30;;
21848;SDS011;11089;49.852;19.700;2023-02-28T09:12:22;14.65;;;7.70;;
21848;SDS011;11089;49.852;19.700;2023-02-28T09:15:24;11.48;;;6.75;;
21848;SDS011;11089;49.852;19.700;2023-02-28T09:18:25;14.98;;;7.57;;
21848;SDS011;11089;49.852;19.700;2023-02-28T09:21:27;14.40;;;7.45;;
21848;SDS011;11089;49.852;19.700;2023-02-28T09:24:28;11.85;;;6.88;;
21848;SDS011;11089;49.852;19.700;2023-02-28T09:27:31;10.05;;;6.15;;
21848;SDS011;11089;49.852;19.700;2023-02-28T09:30:32;10.73;;;6.13;;
21848;SDS011;11089;49.852;19.700;2023-02-28T09:33:34;10.55;;;6.35;;
21848;SDS011;11089;49.852;19.700;2023-02-28T09:36:35;12.30;;;6.47;;
21848;SDS011;11089;49.852;19.700;2023-02-28T09:39:37;11.95;;;6.72;;
21848;SDS011;11089;49.852;19.700;2023-02-28T09:42:38;10.25;;;6.78;;
21848;SDS011;11089;49.852;19.700;2023-02-28T09:45:39;11.30;;;7.00;;
21848;SDS011;11089;49.852;19.700;2023-02-28T09:48:44;10.32;;;6.60;;
21848;SDS011;11089;49.852;19.700;2023-02-28T09:51:51;9.60;;;6.47;;
21848;SDS011;11089;49.852;19.700;2023-02-28T09:55:01;10.77;;;6.10;;
21848;SDS011;11089;49.852;19.700;2023-02-28T09:58:28;11.75;;;7.38;;
21848;SDS011;11089;49.852;19.700;2023-02-28T10:01:50;9.32;;;5.82;;
21848;SDS011;11089;49.852;19.700;2023-02-28T10:04:58;10.93;;;6.78;;
21848;SDS011;11089;49.852;19.700;2023-02-28T10:08:13;11.07;;;7.10;;
21848;SDS011;11089;49.852;19.700;2023-02-28T10:11:17;9.68;;;6.25;;
21848;SDS011;11089;49.852;19.700;2023-02-28T10:14:21;11.18;;;6.63;;
21848;SDS011;11089;49.852;19.700;2023-02-28T10:17:25;10.70;;;6.60;;
21848;SDS011;11089;49.852;19.700;2023-02-28T10:20:32;9.88;;;6.28;;
21848;SDS011;11089;49.852;19.700;2023-02-28T10:23:35;11.07;;;5.97;;
21848;SDS011;11089;49.852;19.700;2023-02-28T10:26:37;7.75;;;5.43;;
21848;SDS011;11089;49.852;19.700;2023-02-28T10:29:40;9.68;;;6.07;;
21848;SDS011;11089;49.852;19.700;2023-02-28T10:32:50;10.43;;;6.45;;
21848;SDS011;11089;49.852;19.700;2023-02-28T10:35:53;7.53;;;5.38;;
21848;SDS011;11089;49.852;19.700;2023-02-28T10:38:55;9.50;;;6.00;;
21848;SDS011;11089;49.852;19.700;2023-02-28T10:41:56;10.77;;;6.22;;
21848;SDS011;11089;49.852;19.700;2023-02-28T10:45:05;11.60;;;6.57;;
21848;SDS011;11089;49.852;19.700;2023-02-28T10:51:18;8.60;;;5.40;;
21848;SDS011;11089;49.852;19.700;2023-02-28T10:54:22;10.57;;;6.75;;
21848;SDS011;11089;49.852;19.700;2023-02-28T10:57:27;10.15;;;5.75;;
21848;SDS011;11089;49.852;19.700;2023-02-28T11:00:32;9.65;;;6.63;;
21848;SDS011;11089;49.852;19.700;2023-02-28T11:03:35;8.88;;;6.03;;
21848;SDS011;11089;49.852;19.700;2023-02-28T11:06:36;10.52;;;6.20;;
21848;SDS011;11089;49.852;19.700;2023-02-28T11:09:40;10.13;;;6.45;;
21848;SDS011;11089;49.852;19.700;2023-02-28T11:12:43;6.93;;;5.45;;
21848;SDS011;11089;49.852;19.700;2023-02-28T11:15:53;9.93;;;6.28;;
21848;SDS011;11089;49.852;19.700;2023-02-28T11:18:55;9.80;;;6.45;;
21848;SDS011;11089;49.852;19.700;2023-02-28T11:21:58;10.45;;;6.35;;
21848;SDS011;11089;49.852;19.700;2023-02-28T11:25:08;8.38;;;6.40;;
21848;SDS011;11089;49.852;19.700;2023-02-28T11:28:25;11.15;;;7.03;;
21848;SDS011;11089;49.852;19.700;2023-02-28T11:31:33;9.10;;;7.22;;
21848;SDS011;11089;49.852;19.700;2023-02-28T11:34:35;11.15;;;6.95;;
21848;SDS011;11089;49.852;19.700;2023-02-28T11:37:38;10.98;;;7.38;;
21848;SDS011;11089;49.852;19.700;2023-02-28T11:40:52;11.65;;;7.88;;
21848;SDS011;11089;49.852;19.700;2023-02-28T11:44:09;13.07;;;7.72;;
21848;SDS011;11089;49.852;19.700;2023-02-28T11:47:21;12.95;;;7.72;;
21848;SDS011;11089;49.852;19.700;2023-02-28T12:16:29;11.13;;;7.97;;
21848;SDS011;11089;49.852;19.700;2023-02-28T12:20:01;12.52;;;7.43;;
21848;SDS011;11089;49.852;19.700;2023-02-28T12:23:26;14.23;;;8.77;;
21848;SDS011;11089;49.852;19.700;2023-02-28T12:26:48;12.38;;;8.50;;
21848;SDS011;11089;49.852;19.700;2023-02-28T12:29:54;11.77;;;7.63;;
21848;SDS011;11089;49.852;19.700;2023-02-28T12:33:00;11.50;;;7.03;;
21848;SDS011;11089;49.852;19.700;2023-02-28T12:36:04;10.82;;;7.80;;
21848;SDS011;11089;49.852;19.700;2023-02-28T12:39:13;12.40;;;8.13;;
21848;SDS011;11089;49.852;19.700;2023-02-28T12:42:30;14.07;;;8.50;;
21848;SDS011;11089;49.852;19.700;2023-02-28T12:48:44;12.05;;;7.60;;
21848;SDS011;11089;49.852;19.700;2023-02-28T12:51:49;12.82;;;8.48;;
21848;SDS011;11089;49.852;19.700;2023-02-28T12:55:03;13.90;;;8.13;;
21848;SDS011;11089;49.852;19.700;2023-02-28T13:04:47;19.25;;;9.65;;
21848;SDS011;11089;49.852;19.700;2023-02-28T13:14:38;17.63;;;8.80;;
21848;SDS011;11089;49.852;19.700;2023-02-28T13:17:40;14.00;;;9.10;;
21848;SDS011;11089;49.852;19.700;2023-02-28T13:20:47;15.98;;;9.40;;
21848;SDS011;11089;49.852;19.700;2023-02-28T13:30:00;15.70;;;9.85;;
21848;SDS011;11089;49.852;19.700;2023-02-28T13:33:26;14.13;;;8.27;;
21848;SDS011;11089;49.852;19.700;2023-02-28T13:40:32;15.98;;;8.85;;
21848;SDS011;11089;49.852;19.700;2023-02-28T13:53:30;12.65;;;8.20;;
21848;SDS011;11089;49.852;19.700;2023-02-28T13:56:41;14.18;;;7.82;;
21848;SDS011;11089;49.852;19.700;2023-02-28T14:00:08;13.50;;;8.00;;
21848;SDS011;11089;49.852;19.700;2023-02-28T14:03:26;16.40;;;8.57;;
21848;SDS011;11089;49.852;19.700;2023-02-28T14:06:32;14.00;;;8.98;;
21848;SDS011;11089;49.852;19.700;2023-02-28T14:09:38;14.85;;;8.60;;
21848;SDS011;11089;49.852;19.700;2023-02-28T14:12:53;14.43;;;8.25;;
21848;SDS011;11089;49.852;19.700;2023-02-28T14:15:59;13.45;;;8.18;;
21848;SDS011;11089;49.852;19.700;2023-02-28T14:19:03;13.88;;;7.97;;
21848;SDS011;11089;49.852;19.700;2023-02-28T14:22:38;18.90;;;8.50;;
21848;SDS011;11089;49.852;19.700;2023-02-28T14:25:48;15.20;;;8.88;;
21848;SDS011;11089;49.852;19.700;2023-02-28T14:38:46;17.88;;;8.45;;
21848;SDS011;11089;49.852;19.700;2023-02-28T14:42:01;14.20;;;7.50;;
21848;SDS011;11089;49.852;19.700;2023-02-28T14:45:05;14.50;;;8.02;;
21848;SDS011;11089;49.852;19.700;2023-02-28T14:48:08;13.85;;;8.13;;
21848;SDS011;11089;49.852;19.700;2023-02-28T14:51:10;16.13;;;9.10;;
21848;SDS011;11089;49.852;19.700;2023-02-28T14:54:13;13.45;;;8.15;;
21848;SDS011;11089;49.852;19.700;2023-02-28T15:00:28;13.02;;;7.65;;
21848;SDS011;11089;49.852;19.700;2023-02-28T15:06:33;15.57;;;8.10;;
21848;SDS011;11089;49.852;19.700;2023-02-28T15:09:34;15.30;;;7.95;;
21848;SDS011;11089;49.852;19.700;2023-02-28T15:12:35;13.40;;;7.70;;
21848;SDS011;11089;49.852;19.700;2023-02-28T15:19:00;14.70;;;8.45;;
21848;SDS011;11089;49.852;19.700;2023-02-28T15:22:05;21.38;;;8.38;;
21848;SDS011;11089;49.852;19.700;2023-02-28T15:25:12;15.60;;;7.13;;
21848;SDS011;11089;49.852;19.700;2023-02-28T15:28:17;16.35;;;8.40;;
21848;SDS011;11089;49.852;19.700;2023-02-28T15:31:28;14.57;;;8.75;;
21848;SDS011;11089;49.852;19.700;2023-02-28T15:34:39;15.73;;;7.75;;
21848;SDS011;11089;49.852;19.700;2023-02-28T15:37:50;14.82;;;7.47;;
21848;SDS011;11089;49.852;19.700;2023-02-28T15:40:56;13.60;;;7.70;;
21848;SDS011;11089;49.852;19.700;2023-02-28T15:47:30;14.95;;;7.35;;
21848;SDS011;11089;49.852;19.700;2023-02-28T15:50:31;16.20;;;8.40;;
21848;SDS011;11089;49.852;19.700;2023-02-28T15:53:33;16.92;;;8.55;;
21848;SDS011;11089;49.852;19.700;2023-02-28T15:56:39;17.48;;;8.73;;
21848;SDS011;11089;49.852;19.700;2023-02-28T15:59:48;14.93;;;8.60;;
21848;SDS011;11089;49.852;19.700;2023-02-28T16:02:55;18.42;;;8.95;;
21848;SDS011;11089;49.852;19.700;2023-02-28T16:09:17;16.98;;;8.88;;
21848;SDS011;11089;49.852;19.700;2023-02-28T16:12:18;16.85;;;8.30;;
21848;SDS011;11089;49.852;19.700;2023-02-28T16:15:25;18.98;;;8.55;;
21848;SDS011;11089;49.852;19.700;2023-02-28T16:18:29;18.85;;;8.85;;
21848;SDS011;11089;49.852;19.700;2023-02-28T16:21:29;20.73;;;9.38;;
21848;SDS011;11089;49.852;19.700;2023-02-28T16:24:31;15.77;;;8.30;;
21848;SDS011;11089;49.852;19.700;2023-02-28T16:27:32;18.48;;;8.32;;
21848;SDS011;11089;49.852;19.700;2023-02-28T16:30:37;14.32;;;7.38;;
21848;SDS011;11089;49.852;19.700;2023-02-28T16:33:38;13.68;;;7.18;;
21848;SDS011;11089;49.852;19.700;2023-02-28T16:36:39;16.23;;;8.00;;
21848;SDS011;11089;49.852;19.700;2023-02-28T16:39:42;13.73;;;7.78;;
21848;SDS011;11089;49.852;19.700;2023-02-28T16:42:44;15.85;;;8.32;;
21848;SDS011;11089;49.852;19.700;2023-02-28T16:45:46;16.52;;;8.38;;
21848;SDS011;11089;49.852;19.700;2023-02-28T16:48:47;18.02;;;8.48;;
21848;SDS011;11089;49.852;19.700;2023-02-28T16:51:51;17.50;;;8.68;;
21848;SDS011;11089;49.852;19.700;2023-02-28T16:54:52;22.33;;;11.57;;
21848;SDS011;11089;49.852;19.700;2023-02-28T16:57:55;24.88;;;11.70;;
21848;SDS011;11089;49.852;19.700;2023-02-28T17:00:57;27.85;;;12.23;;
21848;SDS011;11089;49.852;19.700;2023-02-28T17:03:58;27.90;;;12.63;;
21848;SDS011;11089;49.852;19.700;2023-02-28T17:06:59;30.70;;;12.75;;
21848;SDS011;11089;49.852;19.700;2023-02-28T17:10:00;31.15;;;12.80;;
21848;SDS011;11089;49.852;19.700;2023-02-28T17:13:08;31.92;;;12.90;;
21848;SDS011;11089;49.852;19.700;2023-02-28T17:16:22;29.10;;;13.45;;
21848;SDS011;11089;49.852;19.700;2023-02-28T17:19:31;26.50;;;11.95;;
21848;SDS011;11089;49.852;19.700;2023-02-28T17:22:33;27.85;;;11.48;;
21848;SDS011;11089;49.852;19.700;2023-02-28T17:25:34;26.48;;;11.55;;
21848;SDS011;11089;49.852;19.700;2023-02-28T17:28:35;24.60;;;11.68;;
21848;SDS011;11089;49.852;19.700;2023-02-28T17:31:36;28.00;;;11.75;;
21848;SDS011;11089;49.852;19.700;2023-02-28T17:34:38;22.88;;;11.05;;
21848;SDS011;11089;49.852;19.700;2023-02-28T17:37:39;29.60;;;12.45;;
21848;SDS011;11089;49.852;19.700;2023-02-28T17:40:41;27.92;;;12.73;;
21848;SDS011;11089;49.852;19.700;2023-02-28T17:43:42;35.85;;;15.27;;
21848;SDS011;11089;49.852;19.700;2023-02-28T17:46:43;30.30;;;14.75;;
21848;SDS011;11089;49.852;19.700;2023-02-28T17:49:45;29.05;;;14.90;;
21848;SDS011;11089;49.852;19.700;2023-02-28T17:52:46;35.58;;;14.98;;
21848;SDS011;11089;49.852;19.700;2023-02-28T17:55:47;30.25;;;14.98;;
21848;SDS011;11089;49.852;19.700;2023-02-28T17:58:48;37.30;;;15.07;;
21848;SDS011;11089;49.852;19.700;2023-02-28T18:01:49;32.88;;;15.00;;
21848;SDS011;11089;49.852;19.700;2023-02-28T18:04:50;41.95;;;18.05;;
21848;SDS011;11089;49.852;19.700;2023-02-28T18:07:51;50.13;;;21.35;;
21848;SDS011;11089;49.852;19.700;2023-02-28T18:10:52;51.42;;;21.58;;
21848;SDS011;11089;49.852;19.700;2023-02-28T18:13:53;61.22;;;24.83;;
21848;SDS011;11089;49.852;19.700;2023-02-28T18:16:56;118.50;;;43.67;;
21848;SDS011;11089;49.852;19.700;2023-02-28T18:19:57;124.25;;;46.35;;
21848;SDS011;11089;49.852;19.700;2023-02-28T18:22:59;106.80;;;38.55;;
21848;SDS011;11089;49.852;19.700;2023-02-28T18:26:00;77.85;;;31.67;;
21848;SDS011;11089;49.852;19.700;2023-02-28T18:29:06;70.70;;;28.65;;
21848;SDS011;11089;49.852;19.700;2023-02-28T18:32:07;86.75;;;34.85;;
21848;SDS011;11089;49.852;19.700;2023-02-28T18:35:09;73.45;;;28.50;;
21848;SDS011;11089;49.852;19.700;2023-02-28T18:38:14;58.90;;;24.25;;
21848;SDS011;11089;49.852;19.700;2023-02-28T18:41:19;61.67;;;24.65;;
21848;SDS011;11089;49.852;19.700;2023-02-28T18:44:20;56.42;;;21.55;;
21848;SDS011;11089;49.852;19.700;2023-02-28T18:47:21;52.22;;;20.92;;
21848;SDS011;11089;49.852;19.700;2023-02-28T18:50:22;59.15;;;21.80;;
21848;SDS011;11089;49.852;19.700;2023-02-28T18:53:23;60.97;;;22.98;;
21848;SDS011;11089;49.852;19.700;2023-02-28T18:56:24;54.22;;;21.55;;
21848;SDS011;11089;49.852;19.700;2023-02-28T18:59:25;48.00;;;19.25;;
21848;SDS011;11089;49.852;19.700;2023-02-28T19:02:26;44.17;;;18.90;;
21848;SDS011;11089;49.852;19.700;2023-02-28T19:05:28;47.10;;;19.23;;
21848;SDS011;11089;49.852;19.700;2023-02-28T19:08:32;45.17;;;18.75;;
21848;SDS011;11089;49.852;19.700;2023-02-28T19:11:33;45.35;;;17.50;;
21848;SDS011;11089;49.852;19.700;2023-02-28T19:14:34;51.22;;;18.95;;
21848;SDS011;11089;49.852;19.700;2023-02-28T19:17:35;50.63;;;21.65;;
21848;SDS011;11089;49.852;19.700;2023-02-28T19:20:36;58.22;;;23.30;;
21848;SDS011;11089;49.852;19.700;2023-02-28T19:23:37;61.83;;;26.13;;
21848;SDS011;11089;49.852;19.700;2023-02-28T19:26:39;58.33;;;24.40;;
21848;SDS011;11089;49.852;19.700;2023-02-28T19:29:40;61.38;;;24.83;;
21848;SDS011;11089;49.852;19.700;2023-02-28T19:32:41;68.85;;;25.95;;
21848;SDS011;11089;49.852;19.700;2023-02-28T19:35:43;60.95;;;25.50;;
21848;SDS011;11089;49.852;19.700;2023-02-28T19:38:44;68.60;;;27.20;;
21848;SDS011;11089;49.852;19.700;2023-02-28T19:41:45;78.63;;;32.22;;
21848;SDS011;11089;49.852;19.700;2023-02-28T19:44:46;86.38;;;33.97;;
21848;SDS011;11089;49.852;19.700;2023-02-28T19:47:46;74.50;;;28.88;;
21848;SDS011;11089;49.852;19.700;2023-02-28T19:50:47;69.10;;;28.48;;
21848;SDS011;11089;49.852;19.700;2023-02-28T19:53:48;72.22;;;29.08;;
21848;SDS011;11089;49.852;19.700;2023-02-28T19:56:49;75.35;;;28.45;;